Temp: 9.8°C   Baro: 991.4mb
  Wind: 2.0mph   Dir: ESE (113°)
  Rain: 3.6mm (0.0mm/hr)
  Solar: 0W/m2  Hum: 88%
 
Bath Spa Weather Station Historical Data
Daily Summary for July 13, 2019 Units:  Metric    English   Both
Daily Weekly Monthly Yearly Custom
  High: Low: Average:
Temperature: 14.9 °C 9.3 °C 11.8 °C
Dew Point: 12.6 °C 8.3 °C 10.3 °C
Humidity: 96% 75.9% 91%
Wind Speed: 24km/h 0km/h 4.2km/h
Wind Gust: 41.8km/h - -
Wind- - SSW
Pressure: 1009.7 hPa 997.9 hPa -
Precipitation: 12.7 mm    
Historical Graphs
 
 
Tabular Data for July 13, 2019
Time Temperature Dew Point Pressure Wind Wind Speed Wind Gust Humidity Rainfall Rate (Hourly) solar
00:04 11.3 °C 10.2 °C 1006 hPa SW 2.9 km/h 6.4 km/h 93% 0.51 mm 0 W/m2
00:09 11.3 °C 10.2 °C 1005.6 hPa SW 1.8 km/h 6.4 km/h 93% 0.51 mm 0 W/m2
00:14 11.3 °C 10.2 °C 1005.6 hPa SW 2.6 km/h 6.4 km/h 93% 0.51 mm 0 W/m2
00:19 11.3 °C 10.2 °C 1005.6 hPa SW 0.6 km/h 6.4 km/h 93.1% 0.51 mm 0 W/m2
00:24 11.3 °C 10.3 °C 1005.6 hPa SW 2.3 km/h 6.4 km/h 93.4% 0.51 mm 0 W/m2
00:29 11.3 °C 10.3 °C 1005.6 hPa SW 0.6 km/h 6.4 km/h 93.5% 0.51 mm 0 W/m2
00:34 11.3 °C 10.4 °C 1005.6 hPa SW 1.8 km/h 6.4 km/h 93.9% 0.51 mm 0 W/m2
00:39 11.3 °C 10.4 °C 1005.3 hPa SW 3.2 km/h 8 km/h 94% 0.51 mm 0 W/m2
00:44 11.3 °C 10.3 °C 1005.3 hPa SSW 4.8 km/h 11.3 km/h 94% 0.51 mm 0 W/m2
00:49 11.2 °C 10.3 °C 1005.3 hPa SSW 3.7 km/h 9.7 km/h 94% 0.51 mm 0 W/m2
00:54 11.2 °C 10.3 °C 1005 hPa SSW 3.5 km/h 9.7 km/h 94% 0.51 mm 0 W/m2
00:59 11.2 °C 10.2 °C 1005 hPa SSW 2.9 km/h 9.7 km/h 94% 0.51 mm 0 W/m2
01:04 11.1 °C 10.2 °C 1005 hPa SSW 3.9 km/h 9.7 km/h 94% 0.51 mm 0 W/m2
01:09 11.1 °C 10.2 °C 1005 hPa SSW 1.9 km/h 9.7 km/h 94% 0.51 mm 0 W/m2
01:14 11.1 °C 10.2 °C 1004.6 hPa SSW 2.3 km/h 9.7 km/h 94% 0.51 mm 0 W/m2
01:19 11.1 °C 10.2 °C 1004.6 hPa SSW 1.1 km/h 8 km/h 94% 0.51 mm 0 W/m2
01:24 11.1 °C 10.2 °C 1005 hPa SSW 0.6 km/h 6.4 km/h 94% 0.51 mm 0 W/m2
01:29 11.1 °C 10.2 °C 1005 hPa SSW 1.6 km/h 4.8 km/h 94% 0.51 mm 0 W/m2
01:34 11.1 °C 10.2 °C 1005 hPa SSW 1.4 km/h 6.4 km/h 94% 0.51 mm 0 W/m2
01:39 11.1 °C 10.2 °C 1005 hPa SSW 1.3 km/h 6.4 km/h 94% 0.51 mm 0 W/m2
01:44 11.1 °C 10.2 °C 1004.6 hPa SSW 1 km/h 4.8 km/h 94% 0.51 mm 0 W/m2
01:49 11.1 °C 10.2 °C 1004.6 hPa SSW 0.2 km/h 1.6 km/h 94% 0.51 mm 0 W/m2
01:54 11.2 °C 10.2 °C 1004.6 hPa Calm   1.6 km/h 94% 0.51 mm 0 W/m2
01:59 11.2 °C 10.3 °C 1004.6 hPa SSW 0.8 km/h 4.8 km/h 94% 0.51 mm 0 W/m2
02:04 11.2 °C 10.3 °C 1004.6 hPa SSW 1.1 km/h 4.8 km/h 94% 0.51 mm 0 W/m2
02:09 11.2 °C 10.3 °C 1004.6 hPa SSW 0.5 km/h 4.8 km/h 94% 0.51 mm 0 W/m2
02:14 11.2 °C 10.3 °C 1004.6 hPa Calm   1.6 km/h 94% 0.51 mm 0 W/m2
02:19 11.2 °C 10.3 °C 1004.6 hPa Calm   1.6 km/h 94% 0.51 mm 0 W/m2
02:24 11.2 °C 10.3 °C 1004.6 hPa SSW 0.8 km/h 3.2 km/h 94% 0.76 mm 0 W/m2
02:29 11.2 °C 10.3 °C 1004.3 hPa SSW 0.2 km/h 3.2 km/h 94% 0.76 mm 0 W/m2
02:34 11.3 °C 10.4 °C 1004.3 hPa SSW 0.2 km/h 1.6 km/h 94% 0.76 mm 0 W/m2
02:39 11.3 °C 10.4 °C 1004.3 hPa Calm     94% 0.76 mm 0 W/m2
02:44 11.3 °C 10.4 °C 1004.3 hPa SSW 0.3 km/h 1.6 km/h 94% 0.76 mm 0 W/m2
02:49 11.3 °C 10.3 °C 1004.3 hPa Calm     94% 0.51 mm 0 W/m2
02:54 11.3 °C 10.4 °C 1003.9 hPa Calm     94% 0.76 mm 0 W/m2
02:59 11.3 °C 10.4 °C 1003.9 hPa Calm     94.3% 0.76 mm 0 W/m2
03:04 11.3 °C 10.5 °C 1003.9 hPa SSW 0.3 km/h 1.6 km/h 94.8% 0.76 mm 0 W/m2
03:09 11.3 °C 10.5 °C 1003.9 hPa Calm   1.6 km/h 95% 0.76 mm 0 W/m2
03:14 11.3 °C 10.5 °C 1003.9 hPa SSW 0.2 km/h 1.6 km/h 95% 1.02 mm 0 W/m2
03:19 11.3 °C 10.5 °C 1003.9 hPa Calm     95% 1.02 mm 0 W/m2
03:24 11.3 °C 10.5 °C 1003.6 hPa SSW 0.3 km/h 1.6 km/h 95% 1.02 mm 0 W/m2
03:29 11.3 °C 10.5 °C 1003.6 hPa Calm   1.6 km/h 95% 1.02 mm 0 W/m2
03:34 11.3 °C 10.6 °C 1003.6 hPa SSW 1 km/h 4.8 km/h 95% 1.27 mm 0 W/m2
03:39 11.4 °C 10.6 °C 1003.6 hPa Calm     95% 1.27 mm 0 W/m2
03:44 11.4 °C 10.6 °C 1003.6 hPa SSW 0.2 km/h 3.2 km/h 95% 1.27 mm 0 W/m2
03:49 11.4 °C 10.6 °C 1003.3 hPa SSW 1.3 km/h 4.8 km/h 95% 1.52 mm 0 W/m2
03:54 11.4 °C 10.6 °C 1003.3 hPa SSW 1 km/h 4.8 km/h 95% 1.52 mm 0 W/m2
03:59 11.4 °C 10.6 °C 1003.3 hPa SSW 2.4 km/h 8 km/h 95% 1.52 mm 0 W/m2
04:04 11.4 °C 10.6 °C 1003.3 hPa SSW 3.2 km/h 9.7 km/h 95% 1.52 mm 0 W/m2
04:09 11.4 °C 10.6 °C 1002.9 hPa SSW 3.1 km/h 9.7 km/h 95% 1.52 mm 0 W/m2
04:14 11.4 °C 10.6 °C 1002.6 hPa SSW 1 km/h 8 km/h 95% 1.52 mm 0 W/m2
04:19 11.4 °C 10.6 °C 1002.3 hPa SSE 2.4 km/h 9.7 km/h 95% 1.27 mm 0 W/m2
04:24 11.4 °C 10.6 °C 1002.3 hPa SSE 3.2 km/h 8 km/h 95% 1.02 mm 0 W/m2
04:29 11.3 °C 10.6 °C 1001.9 hPa ESE 4.5 km/h 14.5 km/h 95% 1.27 mm 0 W/m2
04:34 11.3 °C 10.6 °C 1001.6 hPa East 2.6 km/h 12.9 km/h 95% 1.02 mm 0 W/m2
04:39 11.3 °C 10.5 °C 1001.9 hPa East 1 km/h 6.4 km/h 95% 0.76 mm 0 W/m2
04:44 11.3 °C 10.5 °C 1002.3 hPa East 2.1 km/h 8 km/h 95% 0.76 mm 0 W/m2
04:49 11.3 °C 10.5 °C 1002.6 hPa East 0.5 km/h 4.8 km/h 95% 0.76 mm 0 W/m2
04:54 11.3 °C 10.6 °C 1002.3 hPa East 0.3 km/h 4.8 km/h 95% 0.51 mm 0 W/m2
04:59 11.4 °C 10.6 °C 1002.3 hPa East 1 km/h 4.8 km/h 95% 0.76 mm 0 W/m2
05:04 11.4 °C 10.6 °C 1002.3 hPa East 2.9 km/h 6.4 km/h 95% 1.02 mm 0 W/m2
05:09 11.4 °C 10.6 °C 1001.9 hPa East 0.6 km/h 4.8 km/h 95% 1.02 mm 0 W/m2
05:14 11.3 °C 10.6 °C 1001.9 hPa East 0.2 km/h 1.6 km/h 95% 1.52 mm 0 W/m2
05:19 11.3 °C 10.6 °C 1001.9 hPa East 1.6 km/h 4.8 km/h 95% 1.52 mm 0 W/m2
05:24 11.3 °C 10.5 °C 1001.9 hPa East 0.2 km/h 4.8 km/h 95% 1.52 mm 0 W/m2
05:29 11.3 °C 10.5 °C 1001.6 hPa East 1.8 km/h 8 km/h 95% 1.78 mm 0 W/m2
05:34 11.3 °C 10.5 °C 1001.6 hPa East 0.8 km/h 4.8 km/h 95% 1.78 mm 0 W/m2
05:39 11.3 °C 10.5 °C 1001.6 hPa East 1.3 km/h 4.8 km/h 95% 2.03 mm 0 W/m2
05:44 11.3 °C 10.5 °C 1001.2 hPa East 2.3 km/h 8 km/h 95% 2.03 mm 0 W/m2
05:49 11.3 °C 10.5 °C 1001.2 hPa East 1.1 km/h 8 km/h 95% 2.29 mm 0 W/m2
05:54 11.3 °C 10.5 °C 1000.9 hPa Calm   4.8 km/h 95% 2.29 mm 0 W/m2
05:59 11.3 °C 10.5 °C 1000.9 hPa East 4 km/h 11.3 km/h 95% 2.03 mm 0 W/m2
06:04 11.3 °C 10.5 °C 1000.6 hPa East 4 km/h 11.3 km/h 95% 2.03 mm 0 W/m2
06:09 11.3 °C 10.5 °C 1000.6 hPa East 0.8 km/h 9.7 km/h 95% 1.78 mm 0 W/m2
06:14 11.3 °C 10.5 °C 1000.6 hPa East 1.6 km/h 8 km/h 95% 1.52 mm 0 W/m2
06:19 11.3 °C 10.5 °C 1000.6 hPa East 3.7 km/h 11.3 km/h 95% 1.52 mm 0 W/m2
06:24 11.3 °C 10.5 °C 1000.6 hPa East 1.9 km/h 11.3 km/h 95% 1.52 mm 0 W/m2
06:29 11.3 °C 10.5 °C 1000.6 hPa East 2.1 km/h 9.7 km/h 95% 1.52 mm 0 W/m2
06:34 11.3 °C 10.5 °C 1000.6 hPa East 1.1 km/h 9.7 km/h 95% 1.27 mm 0 W/m2
06:39 11.3 °C 10.5 °C 1000.2 hPa East 1.8 km/h 9.7 km/h 95% 1.02 mm 0 W/m2
06:44 11.4 °C 10.6 °C 1000.2 hPa East 2.7 km/h 11.3 km/h 95% 1.27 mm 0 W/m2
06:49 11.4 °C 10.6 °C 999.9 hPa East 1 km/h 9.7 km/h 95% 1.02 mm 0 W/m2
06:54 11.4 °C 10.6 °C 999.9 hPa East 2.7 km/h 11.3 km/h 95% 1.27 mm 0 W/m2
06:59 11.3 °C 10.6 °C 999.5 hPa East 2.1 km/h 11.3 km/h 95% 1.27 mm 0 W/m2
07:04 11.3 °C 10.5 °C 999.5 hPa East 2.6 km/h 9.7 km/h 95% 1.27 mm 0 W/m2
07:09 11.3 °C 10.5 °C 999.5 hPa East 1.4 km/h 9.7 km/h 95% 1.52 mm 0 W/m2
07:14 11.3 °C 10.5 °C 999.5 hPa East 1.4 km/h 9.7 km/h 95% 1.78 mm 0 W/m2
07:19 11.3 °C 10.5 °C 999.5 hPa East 1.8 km/h 8 km/h 95% 1.78 mm 0 W/m2
07:24 11.3 °C 10.5 °C 999.2 hPa East 1 km/h 8 km/h 95% 2.29 mm 0 W/m2
07:29 11.3 °C 10.5 °C 998.9 hPa East 1.8 km/h 8 km/h 95% 2.29 mm 0 W/m2
07:34 11.3 °C 10.5 °C 998.9 hPa East 1.1 km/h 8 km/h 95% 2.29 mm 0 W/m2
07:39 11.3 °C 10.6 °C 998.9 hPa East 1.4 km/h 8 km/h 95% 2.54 mm 0 W/m2
07:44 11.3 °C 10.5 °C 998.5 hPa East 3.9 km/h 9.7 km/h 95% 2.54 mm 0 W/m2
07:49 11.3 °C 10.5 °C 998.5 hPa ESE 5.1 km/h 16.1 km/h 95% 2.79 mm 5 W/m2
07:54 11.3 °C 10.6 °C 998.2 hPa ESE 3.9 km/h 9.7 km/h 95% 2.79 mm 7 W/m2
07:59 11.3 °C 10.5 °C 998.2 hPa ESE 0.2 km/h 6.4 km/h 95% 2.79 mm 9 W/m2
08:04 11.3 °C 10.5 °C 998.2 hPa ESE 1.8 km/h 6.4 km/h 95% 2.54 mm 9 W/m2
08:09 11.3 °C 10.5 °C 998.5 hPa ESE 1.1 km/h 4.8 km/h 95% 2.29 mm 9 W/m2
08:14 11.3 °C 10.5 °C 998.5 hPa ESE 1.3 km/h 4.8 km/h 95% 2.29 mm 9 W/m2
08:19 11.3 °C 10.5 °C 998.5 hPa ESE 1.3 km/h 6.4 km/h 95% 2.29 mm 7 W/m2
08:24 11.3 °C 10.5 °C 998.5 hPa ESE 2.3 km/h 8 km/h 95% 2.29 mm 7 W/m2
08:29 11.3 °C 10.5 °C 998.5 hPa ESE 1.6 km/h 6.4 km/h 95% 2.29 mm 7 W/m2
08:34 11.3 °C 10.6 °C 998.5 hPa ESE 0.2 km/h 1.6 km/h 95.3% 2.29 mm 9 W/m2
08:39 11.3 °C 10.7 °C 998.5 hPa ESE 4.3 km/h 8 km/h 95.5% 2.29 mm 11 W/m2
08:44 11.3 °C 10.7 °C 998.5 hPa ESE 5.6 km/h 9.7 km/h 95.7% 2.29 mm 11 W/m2
08:49 11.3 °C 10.7 °C 998.5 hPa East 6.3 km/h 11.3 km/h 96% 2.29 mm 12 W/m2
08:54 11.3 °C 10.8 °C 998.5 hPa East 1.9 km/h 9.7 km/h 96% 2.29 mm 19 W/m2
08:59 11.3 °C 10.7 °C 998.5 hPa East 5.1 km/h 9.7 km/h 96% 2.29 mm 21 W/m2
09:04 11.3 °C 10.7 °C 998.5 hPa East 1.6 km/h 9.7 km/h 96% 2.29 mm 25 W/m2
09:09 11.3 °C 10.7 °C 998.2 hPa Calm   3.2 km/h 96% 2.29 mm 26 W/m2
09:14 11.3 °C 10.7 °C 998.2 hPa East 0.8 km/h 4.8 km/h 96% 2.03 mm 26 W/m2
09:19 11.3 °C 10.7 °C 997.9 hPa Calm   4.8 km/h 96% 1.78 mm 25 W/m2
09:24 11.3 °C 10.7 °C 997.9 hPa East 0.6 km/h 3.2 km/h 96% 1.78 mm 26 W/m2
09:29 11.3 °C 10.8 °C 997.9 hPa East 1.6 km/h 4.8 km/h 96% 1.52 mm 40 W/m2
09:34 11.3 °C 10.7 °C 997.9 hPa East 1.9 km/h 8 km/h 96% 1.52 mm 46 W/m2
09:39 11.3 °C 10.7 °C 997.9 hPa East 2.7 km/h 9.7 km/h 96% 1.27 mm 56 W/m2
09:44 11.3 °C 10.7 °C 997.9 hPa East 2.1 km/h 9.7 km/h 96% 0.76 mm 56 W/m2
09:49 11.3 °C 10.7 °C 997.9 hPa East 0.5 km/h 3.2 km/h 96% 0.51 mm 51 W/m2
09:54 11.4 °C 10.8 °C 997.9 hPa Calm   1.6 km/h 96% 0.51 mm 49 W/m2
09:59 11.4 °C 10.8 °C 997.9 hPa East 2.4 km/h 8 km/h 96% 0.51 mm 49 W/m2
10:04 11.5 °C 10.9 °C 998.2 hPa East 1.6 km/h 8 km/h 96% 0.51 mm 47 W/m2
10:09 11.6 °C 10.9 °C 998.5 hPa Calm   3.2 km/h 96% 0.51 mm 49 W/m2
10:14 11.6 °C 11 °C 998.5 hPa East 0.2 km/h 1.6 km/h 96% 0.51 mm 56 W/m2
10:19 11.6 °C 11 °C 998.5 hPa East 0.5 km/h 3.2 km/h 96% 0.51 mm 60 W/m2
10:24 11.7 °C 11.1 °C 998.5 hPa East 0.8 km/h 4.8 km/h 96% 0.51 mm 60 W/m2
10:29 11.7 °C 11.1 °C 998.9 hPa East 2.1 km/h 4.8 km/h 96% 0.25 mm 56 W/m2
10:34 11.7 °C 11.1 °C 998.9 hPa East 2.1 km/h 8 km/h 96% 0.25 mm 53 W/m2
10:39 11.7 °C 11.1 °C 998.9 hPa East 2.9 km/h 8 km/h 96% 0.25 mm 53 W/m2
10:44 11.7 °C 11 °C 998.9 hPa East 2.7 km/h 8 km/h 96% 0.25 mm 60 W/m2
10:49 11.6 °C 11 °C 998.9 hPa ENE 4.8 km/h 11.3 km/h 96% 0.25 mm 60 W/m2
10:54 11.6 °C 11 °C 998.9 hPa ENE 2.3 km/h 11.3 km/h 96% 0 mm 54 W/m2
10:59 11.7 °C 11.1 °C 999.2 hPa ENE 1.6 km/h 8 km/h 96% 0 mm 69 W/m2
11:04 11.7 °C 11.1 °C 999.5 hPa ENE 4.3 km/h 9.7 km/h 96% 0 mm 79 W/m2
11:09 11.7 °C 11.1 °C 999.5 hPa NNE 2.4 km/h 6.4 km/h 96% 0 mm 84 W/m2
11:14 11.7 °C 11.1 °C 999.5 hPa NNE 1.8 km/h 6.4 km/h 96% 0 mm 69 W/m2
11:19 11.7 °C 11.1 °C 999.5 hPa NNW 3.1 km/h 6.4 km/h 96% 0 mm 76 W/m2
11:24 11.6 °C 11 °C 999.5 hPa SW 3.9 km/h 9.7 km/h 96% 0 mm 72 W/m2
11:29 11.7 °C 11.1 °C 999.9 hPa SW 2.7 km/h 6.4 km/h 96% 0 mm 79 W/m2
11:34 11.7 °C 11.2 °C 999.9 hPa WSW 6.6 km/h 12.9 km/h 96% 0 mm 70 W/m2
11:39 11.7 °C 11.1 °C 999.9 hPa West 2.6 km/h 12.9 km/h 96% 0 mm 56 W/m2
11:44 11.7 °C 11.1 °C 999.9 hPa West 2.1 km/h 8 km/h 96% 0 mm 70 W/m2
11:49 11.8 °C 11.2 °C 999.9 hPa West 3.1 km/h 6.4 km/h 96% 0 mm 97 W/m2
11:54 11.7 °C 11.2 °C 999.9 hPa West 4.5 km/h 9.7 km/h 96% 0 mm 100 W/m2
11:59 11.8 °C 11.2 °C 1000.2 hPa West 2.9 km/h 6.4 km/h 96% 0 mm 114 W/m2
12:04 11.8 °C 11.3 °C 1000.2 hPa West 0.6 km/h 4.8 km/h 96% 0 mm 123 W/m2
12:09 12 °C 11.4 °C 1000.2 hPa Calm   1.6 km/h 96% 0 mm 125 W/m2
12:14 12.1 °C 11.5 °C 1000.2 hPa West 1.8 km/h 6.4 km/h 96% 0 mm 130 W/m2
12:19 12.1 °C 11.5 °C 1000.2 hPa West 0.8 km/h 6.4 km/h 96% 0 mm 156 W/m2
12:24 12.2 °C 11.6 °C 1000.2 hPa West 2.9 km/h 8 km/h 96% 0 mm 156 W/m2
12:29 12.3 °C 11.7 °C 1000.2 hPa West 2.9 km/h 8 km/h 96% 0 mm 144 W/m2
12:34 12.6 °C 11.9 °C 1000.6 hPa West 3.5 km/h 9.7 km/h 96% 0 mm 153 W/m2
12:39 12.7 °C 12.1 °C 1000.6 hPa West 2.3 km/h 9.7 km/h 96% 0 mm 146 W/m2
12:44 12.7 °C 12.2 °C 1000.6 hPa West 3.4 km/h 8 km/h 96% 0 mm 190 W/m2
12:49 12.8 °C 12.2 °C 1000.6 hPa WSW 7.4 km/h 14.5 km/h 96% 0 mm 206 W/m2
12:54 12.9 °C 12.3 °C 1000.6 hPa SW 10.6 km/h 17.7 km/h 96% 0 mm 181 W/m2
12:59 13.1 °C 12.4 °C 1000.6 hPa SW 11.6 km/h 24.1 km/h 96% 0 mm 192 W/m2
13:04 13.1 °C 12.5 °C 1000.9 hPa SW 14 km/h 22.5 km/h 95.8% 0 mm 158 W/m2
13:09 13.2 °C 12.4 °C 1000.9 hPa SW 14.6 km/h 25.7 km/h 95% 0 mm 109 W/m2
13:14 13.2 °C 12.4 °C 1001.2 hPa SW 9.3 km/h 19.3 km/h 95% 0 mm 102 W/m2
13:19 13.3 °C 12.5 °C 1001.2 hPa SW 10.8 km/h 20.9 km/h 95% 0 mm 77 W/m2
13:24 13.3 °C 12.4 °C 1001.2 hPa WSW 6.3 km/h 17.7 km/h 94.1% 0 mm 62 W/m2
13:29 13.4 °C 12.5 °C 1001.2 hPa WSW 9.3 km/h 24.1 km/h 94% 0 mm 86 W/m2
13:34 13.4 °C 12.6 °C 1001.2 hPa SW 10.8 km/h 24.1 km/h 94% 0 mm 84 W/m2
13:39 13.6 °C 12.5 °C 1001.6 hPa SW 16.1 km/h 27.4 km/h 93.2% 0 mm 62 W/m2
13:44 13.7 °C 12.6 °C 1001.6 hPa SW 8.5 km/h 19.3 km/h 93% 0 mm 97 W/m2
13:49 13.7 °C 12.4 °C 1001.6 hPa SW 13.5 km/h 24.1 km/h 92.1% 0 mm 149 W/m2
13:54 13.7 °C 12.4 °C 1001.6 hPa WSW 16.9 km/h 29 km/h 91.7% 0 mm 202 W/m2
13:59 13.8 °C 12.4 °C 1001.6 hPa WSW 14.5 km/h 27.4 km/h 91% 0 mm 325 W/m2
14:04 14 °C 12.6 °C 1001.6 hPa WSW 15.1 km/h 29 km/h 90.8% 0 mm 325 W/m2
14:09 14.3 °C 12.6 °C 1001.6 hPa WSW 15.1 km/h 33.8 km/h 89.4% 0 mm 394 W/m2
14:14 14.5 °C 12.4 °C 1001.6 hPa WSW 16.6 km/h 33.8 km/h 87.8% 0 mm 304 W/m2
14:19 14.4 °C 12.2 °C 1001.9 hPa West 13.2 km/h 30.6 km/h 86.5% 0 mm 294 W/m2
14:24 14.4 °C 12.2 °C 1001.9 hPa West 14.5 km/h 27.4 km/h 86% 0 mm 257 W/m2
14:29 14.4 °C 12.1 °C 1001.9 hPa West 16.1 km/h 37 km/h 85.4% 0 mm 563 W/m2
14:34 14.6 °C 11.9 °C 1002.3 hPa WNW 20.4 km/h 37 km/h 84.2% 0 mm 517 W/m2
14:39 14.6 °C 11.7 °C 1002.3 hPa West 15.8 km/h 37 km/h 83.1% 0 mm 541 W/m2
14:44 14.8 °C 11.9 °C 1002.3 hPa West 12.7 km/h 25.7 km/h 83% 0 mm 598 W/m2
14:49 14.8 °C 11.8 °C 1002.6 hPa West 23 km/h 40.2 km/h 81.8% 0 mm 550 W/m2
14:54 14.9 °C 11.8 °C 1002.6 hPa WNW 16.1 km/h 33.8 km/h 81.5% 0 mm 555 W/m2
14:59 14.8 °C 11.4 °C 1002.9 hPa WNW 21.6 km/h 41.8 km/h 80.3% 0 mm 554 W/m2
15:04 14.6 °C 10.9 °C 1002.9 hPa West 24 km/h 40.2 km/h 79% 0 mm 297 W/m2
15:09 14.3 °C 10.7 °C 1002.9 hPa WNW 21.7 km/h 41.8 km/h 79% 0 mm 506 W/m2
15:14 14.6 °C 10.9 °C 1003.3 hPa West 15.8 km/h 29 km/h 79% 0 mm 543 W/m2
15:19 14.7 °C 11.1 °C 1003.3 hPa WNW 20.8 km/h 32.2 km/h 78.9% 0 mm 577 W/m2
15:24 14.8 °C 11.1 °C 1003.6 hPa WNW 12.7 km/h 29 km/h 78.5% 0 mm 559 W/m2
15:29 14.7 °C 11 °C 1003.6 hPa West 17.4 km/h 32.2 km/h 78.6% 0 mm 230 W/m2
15:34 14.3 °C 10.8 °C 1003.6 hPa West 18.2 km/h 35.4 km/h 79% 0 mm 171 W/m2
15:39 14.2 °C 10.8 °C 1003.9 hPa WNW 17.2 km/h 32.2 km/h 79.8% 0 mm 171 W/m2
15:44 14.2 °C 10.7 °C 1003.9 hPa WNW 15.1 km/h 27.4 km/h 80% 0 mm 114 W/m2
15:49 14.1 °C 10.7 °C 1003.9 hPa West 15.1 km/h 25.7 km/h 80% 0 mm 132 W/m2
15:54 14 °C 10.6 °C 1004.3 hPa West 18.5 km/h 30.6 km/h 80% 0 mm 230 W/m2
15:59 14.1 °C 10.7 °C 1004.3 hPa West 15.8 km/h 32.2 km/h 80% 0 mm 281 W/m2
16:04 14.1 °C 10.8 °C 1004.6 hPa WNW 12.4 km/h 32.2 km/h 80.3% 0 mm 281 W/m2
16:09 13.9 °C 10.7 °C 1004.6 hPa WNW 14.8 km/h 32.2 km/h 80.7% 0 mm 77 W/m2
16:14 13.8 °C 10.7 °C 1004.6 hPa WNW 10.5 km/h 22.5 km/h 81.6% 0 mm 176 W/m2
16:19 13.7 °C 10.7 °C 1004.6 hPa WNW 11.6 km/h 19.3 km/h 82% 0 mm 69 W/m2
16:24 13.7 °C 10.7 °C 1004.6 hPa WNW 12.9 km/h 22.5 km/h 82.2% 0 mm 69 W/m2
16:29 13.6 °C 10.8 °C 1005 hPa West 17.5 km/h 35.4 km/h 83% 0 mm 172 W/m2
16:34 13.7 °C 10.9 °C 1005 hPa West 15.9 km/h 35.4 km/h 83% 0 mm 294 W/m2
16:39 14.1 °C 11 °C 1005 hPa West 12.2 km/h 32.2 km/h 81.9% 0 mm 248 W/m2
16:44 14.2 °C 10.8 °C 1005 hPa WNW 19.3 km/h 37 km/h 80% 0 mm 207 W/m2
16:49 14.1 °C 10.3 °C 1005 hPa West 16.9 km/h 29 km/h 78% 0 mm 206 W/m2
16:54 14.1 °C 10.3 °C 1005 hPa WNW 17.7 km/h 32.2 km/h 78% 0 mm 181 W/m2
16:59 14 °C 10 °C 1005 hPa West 19.6 km/h 37 km/h 77.1% 0 mm 165 W/m2
17:04 13.9 °C 9.7 °C 1005 hPa WNW 18 km/h 37 km/h 76% 0 mm 151 W/m2
17:09 14 °C 9.7 °C 1005.3 hPa West 14 km/h 37 km/h 75.9% 0 mm 125 W/m2
17:14 14 °C 9.9 °C 1005.3 hPa West 9 km/h 30.6 km/h 76.5% 0 mm 116 W/m2
17:19 14 °C 10 °C 1005.3 hPa West 13.7 km/h 25.7 km/h 77% 0 mm 100 W/m2
17:24 13.9 °C 9.9 °C 1005.6 hPa West 9.3 km/h 25.7 km/h 77% 0 mm 88 W/m2
17:29 13.9 °C 9.9 °C 1005.6 hPa West 9.5 km/h 19.3 km/h 77.3% 0 mm 83 W/m2
17:34 13.8 °C 10 °C 1005.6 hPa West 10.8 km/h 20.9 km/h 78% 0 mm 63 W/m2
17:39 13.7 °C 9.9 °C 1006 hPa West 8.4 km/h 20.9 km/h 78% 0 mm 53 W/m2
17:44 13.6 °C 9.8 °C 1006 hPa West 6 km/h 12.9 km/h 78% 0 mm 33 W/m2
17:49 13.5 °C 9.9 °C 1006.3 hPa West 5 km/h 11.3 km/h 79% 0 mm 33 W/m2
17:54 13.5 °C 9.9 °C 1006.3 hPa WSW 5.1 km/h 11.3 km/h 79.2% 0 mm 35 W/m2
17:59 13.4 °C 9.9 °C 1006.3 hPa West 3.5 km/h 12.9 km/h 79.7% 0 mm 39 W/m2
18:04 13.4 °C 10 °C 1006.3 hPa West 4 km/h 9.7 km/h 80% 0 mm 26 W/m2
18:09 13.3 °C 10.1 °C 1006.3 hPa West 2.3 km/h 8 km/h 80.7% 0 mm 21 W/m2
18:14 13.2 °C 10.1 °C 1006.7 hPa West 2.6 km/h 6.4 km/h 81% 0 mm 14 W/m2
18:19 13.1 °C 9.9 °C 1006.7 hPa West 1.3 km/h 6.4 km/h 81% 0 mm 9 W/m2
18:24 12.8 °C 9.8 °C 1006.7 hPa West 2.6 km/h 8 km/h 81.4% 0 mm 5 W/m2
18:29 12.7 °C 9.7 °C 1006.7 hPa West 4.3 km/h 11.3 km/h 82% 0 mm 5 W/m2
18:34 12.6 °C 9.7 °C 1006.7 hPa West 3.5 km/h 11.3 km/h 82.2% 0 mm 0 W/m2
18:39 12.5 °C 9.7 °C 1006.7 hPa West 3.1 km/h 6.4 km/h 83% 0 mm 0 W/m2
18:44 12.3 °C 9.6 °C 1007 hPa West 3.2 km/h 6.4 km/h 83% 0 mm 0 W/m2
18:49 12.3 °C 9.7 °C 1007 hPa West 2.6 km/h 6.4 km/h 83.7% 0 mm 0 W/m2
18:54 12.2 °C 9.7 °C 1007.3 hPa West 0.3 km/h 4.8 km/h 84% 0 mm 0 W/m2
18:59 12.2 °C 9.6 °C 1007.3 hPa West 1.1 km/h 4.8 km/h 84% 0 mm 0 W/m2
19:04 12.1 °C 9.5 °C 1007.3 hPa West 0.3 km/h 1.6 km/h 84% 0 mm 0 W/m2
19:09 12.1 °C 9.5 °C 1007.3 hPa Calm     84.3% 0 mm 0 W/m2
19:14 11.9 °C 9.6 °C 1007.7 hPa Calm     85% 0 mm 0 W/m2
19:19 11.7 °C 9.3 °C 1007.7 hPa West 0.8 km/h 3.2 km/h 85% 0 mm 0 W/m2
19:24 11.4 °C 9.1 °C 1007.7 hPa West 0.2 km/h 1.6 km/h 85.3% 0 mm 0 W/m2
19:29 11.2 °C 8.9 °C 1007.7 hPa West 0.3 km/h 3.2 km/h 86% 0 mm 0 W/m2
19:34 11.1 °C 8.9 °C 1008 hPa West 1.1 km/h 4.8 km/h 86.8% 0 mm 0 W/m2
19:39 11 °C 8.9 °C 1007.7 hPa West 0.6 km/h 4.8 km/h 87% 0 mm 0 W/m2
19:44 10.9 °C 9 °C 1007.7 hPa West 3.2 km/h 8 km/h 87.9% 0 mm 0 W/m2
19:49 10.9 °C 9 °C 1007.7 hPa West 4.3 km/h 8 km/h 88% 0 mm 0 W/m2
19:54 10.8 °C 8.9 °C 1007.7 hPa West 4.5 km/h 8 km/h 88% 0 mm 0 W/m2
19:59 10.8 °C 9.1 °C 1008 hPa Calm   4.8 km/h 88.7% 0 mm 0 W/m2
20:04 10.8 °C 9.1 °C 1008 hPa Calm   3.2 km/h 89% 0 mm 0 W/m2
20:09 10.7 °C 9.1 °C 1008 hPa West 0.3 km/h 3.2 km/h 89% 0 mm 0 W/m2
20:14 10.7 °C 8.9 °C 1008 hPa Calm   1.6 km/h 89% 0 mm 0 W/m2
20:19 10.5 °C 8.8 °C 1008 hPa Calm     89% 0 mm 0 W/m2
20:24 10.4 °C 8.8 °C 1008 hPa Calm     89.5% 0 mm 0 W/m2
20:29 10.3 °C 8.8 °C 1008 hPa West 0.3 km/h 3.2 km/h 90% 0 mm 0 W/m2
20:34 10.3 °C 8.7 °C 1008.4 hPa Calm   3.2 km/h 90% 0 mm 0 W/m2
20:39 10.3 °C 8.7 °C 1008.4 hPa Calm     90% 0 mm 0 W/m2
20:44 10.3 °C 8.7 °C 1008.4 hPa West 0.8 km/h 3.2 km/h 90% 0 mm 0 W/m2
20:49 10.2 °C 8.7 °C 1008.4 hPa West 1.4 km/h 4.8 km/h 90.1% 0 mm 0 W/m2
20:54 10.2 °C 8.8 °C 1008.4 hPa West 2.3 km/h 4.8 km/h 91% 0 mm 0 W/m2
20:59 10.2 °C 8.8 °C 1008.7 hPa West 2.9 km/h 4.8 km/h 91% 0 mm 0 W/m2
21:04 10.2 °C 8.8 °C 1008.7 hPa West 1.6 km/h 3.2 km/h 91% 0 mm 0 W/m2
21:09 10.2 °C 8.8 °C 1008.7 hPa West 1.6 km/h 4.8 km/h 91% 0 mm 0 W/m2
21:14 10.2 °C 8.8 °C 1008.7 hPa West 0.3 km/h 1.6 km/h 91% 0 mm 0 W/m2
21:19 10.2 °C 8.8 °C 1009 hPa Calm   1.6 km/h 91% 0 mm 0 W/m2
21:24 10.1 °C 8.7 °C 1009 hPa Calm     91% 0 mm 0 W/m2
21:29 10.1 °C 8.7 °C 1009 hPa Calm     91% 0 mm 0 W/m2
21:34 10.1 °C 8.7 °C 1009 hPa Calm     91% 0 mm 0 W/m2
21:39 9.9 °C 8.6 °C 1009 hPa Calm     91% 0 mm 0 W/m2
21:44 9.8 °C 8.4 °C 1009 hPa West 0.5 km/h 3.2 km/h 91% 0 mm 0 W/m2
21:49 9.8 °C 8.4 °C 1009 hPa West 1 km/h 4.8 km/h 91% 0 mm 0 W/m2
21:54 9.9 °C 8.6 °C 1009 hPa West 0.3 km/h 3.2 km/h 91.2% 0 mm 0 W/m2
21:59 9.8 °C 8.4 °C 1009 hPa West 0.6 km/h 3.2 km/h 91.1% 0 mm 0 W/m2
22:04 9.8 °C 8.6 °C 1009.4 hPa West 0.5 km/h 1.6 km/h 92% 0 mm 0 W/m2
22:09 9.7 °C 8.5 °C 1009.4 hPa West 0.2 km/h 1.6 km/h 92% 0 mm 0 W/m2
22:14 9.7 °C 8.5 °C 1009.4 hPa West 0.2 km/h 1.6 km/h 92% 0 mm 0 W/m2
22:19 9.7 °C 8.5 °C 1009 hPa West 0.2 km/h 1.6 km/h 92% 0 mm 0 W/m2
22:24 9.6 °C 8.4 °C 1009.4 hPa Calm     92% 0 mm 0 W/m2
22:29 9.6 °C 8.4 °C 1009.4 hPa Calm     92% 0 mm 0 W/m2
22:34 9.6 °C 8.4 °C 1009.7 hPa Calm     92% 0 mm 0 W/m2
22:39 9.6 °C 8.4 °C 1009.7 hPa West 0.2 km/h 1.6 km/h 92% 0 mm 0 W/m2
22:44 9.6 °C 8.3 °C 1009.7 hPa West 1.1 km/h 3.2 km/h 92% 0 mm 0 W/m2
22:49 9.6 °C 8.3 °C 1009.7 hPa West 1.4 km/h 4.8 km/h 92% 0 mm 0 W/m2
22:54 9.6 °C 8.4 °C 1009.4 hPa West 1.6 km/h 4.8 km/h 92% 0 mm 0 W/m2
22:59 9.7 °C 8.4 °C 1009.4 hPa West 0.5 km/h 3.2 km/h 92% 0 mm 0 W/m2
23:04 9.7 °C 8.6 °C 1009.4 hPa West 1.6 km/h 4.8 km/h 92.6% 0 mm 0 W/m2
23:09 9.7 °C 8.6 °C 1009.4 hPa West 0.2 km/h 4.8 km/h 93% 0 mm 0 W/m2
23:14 9.6 °C 8.5 °C 1009 hPa Calm     93% 0 mm 0 W/m2
23:19 9.6 °C 8.4 °C 1009 hPa West 1.8 km/h 6.4 km/h 93% 0 mm 0 W/m2
23:24 9.4 °C 8.3 °C 1009 hPa West 0.3 km/h 6.4 km/h 93% 0 mm 0 W/m2
23:29 9.4 °C 8.3 °C 1009.4 hPa Calm   1.6 km/h 93% 0 mm 0 W/m2
23:34 9.5 °C 8.4 °C 1009.4 hPa West 0.2 km/h 1.6 km/h 93% 0 mm 0 W/m2
23:39 9.5 °C 8.4 °C 1009.4 hPa Calm   1.6 km/h 93% 0 mm 0 W/m2
23:44 9.4 °C 8.3 °C 1009.4 hPa West 1.3 km/h 4.8 km/h 93% 0 mm 0 W/m2
23:49 9.4 °C 8.3 °C 1009.4 hPa Calm   1.6 km/h 93% 0 mm 0 W/m2
23:54 9.4 °C 8.3 °C 1009.4 hPa Calm     93% 0 mm 0 W/m2
23:59 9.3 °C 8.3 °C 1009.4 hPa Calm     93% 0 mm 0 W/m2
Bath Spa Weather
Compliments of Weather Underground - 2 mb